KLYH/LYH METAR and TAF weather

Enter ICAO airport designator
Station Type Date Time Source
KLYH METAR 2020/09/23 17:54 UTC NOAA

KLYH 231754Z 00000KT 10SM CLR 24/09 A3006 RMK AO2 SLP175 T02390089 10244 20106 58014


Station Type Date Time Source
KLYH Decoded METAR 2020/09/23 17:54 UTC NOAA

LYNCHBURG REGIONAL AIRPORT, VA, United States (KLYH) 37-19N 079-12W 295M
Sep 23, 2020 - 01:54 PM EDT / 2020.09.23 1754 UTC
Wind: Calm:0
Visibility: 10 mile(s):0
Sky conditions: clear
Temperature: 75.0 F (23.9 C)
Dew Point: 48.0 F (8.9 C)
Relative Humidity: 38%
Pressure (altimeter): 30.06 in. Hg (1017 hPa)
Pressure tendency: 0.04 inches (1.4 hPa) lower than three hours ago
ob: KLYH 231754Z 00000KT 10SM CLR 24/09 A3006 RMK AO2 SLP175 T02390089 10244 20106 58014
cycle: 18

Station Type Date Time Source
KLYH TAF 2020/09/23 18:22 UTC NOAA

TAF KLYH 231720Z 2318/2418 VRB03KT P6SM BKN250
FM241500 VRB03KT P6SM VCSH OVC060

Example: see airport list